createdAt,value
2018-02-20T00:00:21.579Z,91.50
2018-02-20T00:02:49.872Z,105.33
2018-02-20T00:05:18.199Z,107.40
2018-02-20T00:07:46.699Z,99.57
2018-02-20T00:10:14.987Z,100.77
2018-02-20T00:12:43.292Z,117.10
2018-02-20T00:15:13.179Z,91.83
2018-02-20T00:17:41.559Z,113.07
2018-02-20T00:20:10.091Z,105.40
2018-02-20T00:22:39.365Z,97.83
2018-02-20T00:25:07.646Z,93.40
2018-02-20T00:27:36.768Z,98.07
2018-02-20T00:30:05.058Z,80.33
2018-02-20T00:32:33.344Z,82.00
2018-02-20T00:35:01.677Z,97.37
2018-02-20T00:37:30.772Z,85.43
2018-02-20T00:39:59.964Z,113.70
2018-02-20T00:42:28.268Z,109.17
2018-02-20T00:44:57.928Z,99.83
2018-02-20T00:47:26.237Z,120.17
2018-02-20T00:49:54.896Z,109.97
2018-02-20T00:52:23.173Z,111.13
2018-02-20T00:54:51.480Z,110.03
2018-02-20T00:57:19.879Z,104.37
2018-02-20T00:59:49.670Z,104.10
2018-02-20T01:02:18.381Z,86.10
2018-02-20T01:04:47.775Z,105.93
2018-02-20T01:07:16.074Z,91.03
2018-02-20T01:09:45.112Z,106.60
2018-02-20T01:12:13.488Z,107.57
2018-02-20T01:14:41.760Z,97.67
2018-02-20T01:17:10.769Z,101.57
2018-02-20T01:19:39.096Z,126.03
2018-02-20T01:22:08.464Z,104.90
2018-02-20T01:24:37.456Z,101.00
2018-02-20T01:27:05.745Z,111.80
2018-02-20T01:29:34.548Z,95.60
2018-02-20T01:32:03.708Z,100.13
2018-02-20T01:34:32.400Z,102.53
2018-02-20T01:37:00.680Z,113.83
2018-02-20T01:39:28.987Z,102.57
2018-02-20T01:41:57.291Z,101.10
2018-02-20T01:44:25.587Z,106.73
2018-02-20T01:46:53.896Z,103.53
2018-02-20T01:49:22.960Z,105.53
2018-02-20T01:51:51.235Z,94.77
2018-02-20T01:54:19.750Z,117.20
2018-02-20T01:56:48.048Z,116.77
2018-02-20T01:59:16.781Z,107.10
2018-02-20T02:01:46.608Z,97.57
2018-02-20T02:04:15.487Z,118.50
2018-02-20T02:06:43.795Z,101.77
2018-02-20T02:09:12.268Z,85.63
2018-02-20T02:11:40.557Z,96.60
2018-02-20T02:14:09.436Z,109.83
2018-02-20T02:16:37.735Z,103.70
2018-02-20T02:19:06.049Z,110.23
2018-02-20T02:21:35.188Z,123.93
2018-02-20T02:24:03.520Z,130.23
2018-02-20T02:26:32.596Z,135.40
2018-02-20T02:29:00.873Z,129.43
2018-02-20T02:31:29.188Z,120.70
2018-02-20T02:33:58.548Z,104.77
2018-02-20T02:36:27.601Z,95.20
2018-02-20T02:38:55.872Z,107.23
2018-02-20T02:41:24.155Z,108.23
2018-02-20T02:43:52.454Z,130.77
2018-02-20T02:46:21.358Z,118.37
2018-02-20T02:48:49.650Z,105.43
2018-02-20T02:51:18.015Z,123.97
2018-02-20T02:53:47.213Z,93.50
2018-02-20T02:56:15.826Z,109.60
2018-02-20T02:58:44.109Z,113.97
2018-02-20T03:01:14.002Z,82.97
2018-02-20T03:03:42.498Z,103.50
2018-02-20T03:06:10.988Z,108.87
2018-02-20T03:08:39.942Z,121.47
2018-02-20T03:11:08.419Z,107.67
2018-02-20T03:13:36.716Z,109.90
2018-02-20T03:16:05.113Z,120.90
2018-02-20T03:18:33.810Z,110.20
2018-02-20T03:21:02.908Z,98.93
2018-02-20T03:23:31.200Z,133.50
2018-02-20T03:26:00.332Z,110.47
2018-02-20T03:28:28.612Z,113.83
2018-02-20T03:30:56.916Z,111.73
2018-02-20T03:33:25.496Z,143.03
2018-02-20T03:35:54.378Z,98.17
2018-02-20T03:38:23.077Z,131.60
2018-02-20T03:40:51.407Z,132.17
2018-02-20T03:43:19.689Z,135.40
2018-02-20T03:45:47.973Z,135.17
2018-02-20T03:48:16.879Z,119.63
2018-02-20T03:50:45.829Z,152.37
2018-02-20T03:53:14.902Z,132.73
2018-02-20T03:55:44.788Z,118.97
2018-02-20T03:58:13.401Z,116.43
2018-02-20T04:00:42.148Z,112.80
2018-02-20T04:03:11.668Z,112.50
2018-02-20T04:05:40.204Z,130.90
2018-02-20T04:08:09.669Z,103.40
2018-02-20T04:10:37.980Z,128.97
2018-02-20T04:13:06.258Z,125.53
2018-02-20T04:15:34.552Z,140.50
2018-02-20T04:18:04.021Z,121.03
2018-02-20T04:20:32.827Z,141.33
2018-02-20T04:23:01.625Z,131.87
2018-02-20T04:25:29.923Z,120.47
2018-02-20T04:27:58.217Z,131.13
2018-02-20T04:30:27.059Z,137.97
2018-02-20T04:32:55.365Z,106.57
2018-02-20T04:35:24.936Z,114.70
2018-02-20T04:37:53.312Z,108.70
2018-02-20T04:40:22.129Z,106.90
2018-02-20T04:42:52.799Z,104.30
2018-02-20T04:45:21.089Z,117.07
2018-02-20T04:47:49.389Z,121.37
2018-02-20T04:50:17.758Z,136.07
2018-02-20T04:52:46.083Z,122.47
2018-02-20T04:55:15.845Z,122.67
2018-02-20T04:57:44.216Z,153.13
2018-02-20T05:00:13.078Z,136.03
2018-02-20T05:02:42.133Z,140.30
2018-02-20T05:05:10.791Z,133.37
2018-02-20T05:07:39.836Z,122.57
2018-02-20T05:10:08.136Z,122.00
2018-02-20T05:12:37.267Z,120.67
2018-02-20T05:15:05.545Z,133.53
2018-02-20T05:17:33.828Z,133.70
2018-02-20T05:20:02.150Z,102.70
2018-02-20T05:22:31.344Z,135.47
2018-02-20T05:24:59.716Z,128.10
2018-02-20T05:27:28.056Z,136.33
2018-02-20T05:29:56.357Z,167.70
2018-02-20T05:32:24.663Z,132.93
2018-02-20T05:34:53.727Z,129.03
2018-02-20T05:37:22.124Z,138.07
2018-02-20T05:39:50.451Z,153.97
2018-02-20T05:42:18.744Z,138.40
2018-02-20T05:44:47.024Z,139.40
2018-02-20T05:47:15.305Z,129.50
2018-02-20T05:49:43.633Z,135.27
2018-02-20T05:52:12.672Z,139.10
2018-02-20T05:54:42.127Z,197.57
2018-02-20T05:57:11.480Z,137.80
2018-02-20T05:59:39.776Z,162.63
2018-02-20T06:02:08.061Z,134.67
2018-02-20T06:04:36.410Z,124.70
2018-02-20T06:07:04.688Z,141.40
2018-02-20T06:09:33.496Z,149.00
2018-02-20T06:12:02.183Z,137.60
2018-02-20T06:14:30.489Z,132.37
2018-02-20T06:16:58.770Z,145.77
2018-02-20T06:19:27.450Z,146.50
2018-02-20T06:21:55.733Z,119.67
2018-02-20T06:24:24.285Z,112.73
2018-02-20T06:26:52.659Z,123.43
2018-02-20T06:29:20.940Z,132.60
2018-02-20T06:31:49.220Z,122.27
2018-02-20T06:34:17.539Z,138.80
2018-02-20T06:36:46.749Z,94.57
2018-02-20T06:39:15.800Z,121.80
2018-02-20T06:41:44.121Z,144.83
2018-02-20T06:44:13.601Z,133.90
2018-02-20T06:46:41.892Z,140.77
2018-02-20T06:49:10.276Z,127.23
2018-02-20T06:51:39.862Z,114.50
2018-02-20T06:54:08.148Z,138.30
2018-02-20T06:56:36.529Z,115.67
2018-02-20T06:59:04.767Z,150.13
2018-02-20T07:01:33.051Z,139.83
2018-02-20T07:04:01.373Z,131.60
2018-02-20T07:06:30.135Z,116.97
2018-02-20T07:08:59.060Z,141.83
2018-02-20T07:11:28.304Z,127.13
2018-02-20T07:13:56.581Z,113.87
2018-02-20T07:16:25.181Z,113.43
2018-02-20T07:18:53.780Z,143.50
2018-02-20T07:21:22.933Z,139.90
2018-02-20T07:23:51.203Z,108.37
2018-02-20T07:26:19.515Z,119.70
2018-02-20T07:28:48.741Z,131.67
2018-02-20T07:31:17.192Z,113.70
2018-02-20T07:33:45.492Z,141.20
2018-02-20T07:36:14.464Z,121.77
2018-02-20T07:38:43.036Z,116.73
2018-02-20T07:41:11.932Z,151.73
2018-02-20T07:43:41.057Z,124.60
2018-02-20T07:46:09.861Z,107.23
2018-02-20T07:48:38.209Z,130.37
2018-02-20T07:51:06.518Z,115.57
2018-02-20T07:53:34.875Z,131.03
2018-02-20T07:56:03.472Z,119.33
2018-02-20T07:58:32.079Z,138.07
2018-02-20T08:01:01.238Z,108.30
2018-02-20T08:03:30.449Z,145.93
2018-02-20T08:05:59.043Z,113.40
2018-02-20T08:08:27.663Z,104.13
2018-02-20T08:10:56.767Z,137.10
2018-02-20T08:13:25.041Z,101.97
2018-02-20T08:15:54.810Z,107.80
2018-02-20T08:18:23.606Z,127.43
2018-02-20T08:20:52.692Z,110.63
2018-02-20T08:23:21.177Z,115.10
2018-02-20T08:25:49.474Z,102.57
2018-02-20T08:28:17.812Z,107.27
2018-02-20T08:30:46.534Z,103.93
2018-02-20T08:33:15.337Z,89.63
2018-02-20T08:35:43.806Z,88.10
2018-02-20T08:38:12.087Z,95.20
2018-02-20T08:40:41.058Z,85.33
2018-02-20T08:43:09.637Z,82.53
2018-02-20T08:45:37.921Z,98.37
2018-02-20T08:48:06.187Z,112.07
2018-02-20T08:50:34.569Z,101.07
2018-02-20T08:53:03.682Z,90.67
2018-02-20T08:55:32.144Z,94.00
2018-02-20T08:58:00.560Z,73.80
2018-02-20T09:00:28.864Z,87.27
2018-02-20T09:02:58.016Z,85.43
2018-02-20T09:05:26.401Z,72.37
2018-02-20T09:07:54.987Z,76.13
2018-02-20T09:10:23.887Z,68.03
2018-02-20T09:12:52.335Z,91.73
2018-02-20T09:15:21.561Z,105.50
2018-02-20T09:17:50.456Z,83.33
2018-02-20T09:20:18.748Z,94.63
2018-02-20T09:22:47.277Z,91.27
2018-02-20T09:25:15.552Z,92.67
2018-02-20T09:27:44.011Z,90.47
2018-02-20T09:30:13.152Z,86.80
2018-02-20T09:32:41.483Z,84.30
2018-02-20T09:35:10.627Z,86.80
2018-02-20T09:37:38.952Z,86.63
2018-02-20T09:40:07.992Z,82.23
2018-02-20T09:42:36.453Z,81.63
2018-02-20T09:45:04.739Z,84.63
2018-02-20T09:47:33.026Z,85.80
2018-02-20T09:50:01.769Z,85.40
2018-02-20T09:52:30.549Z,77.50
2018-02-20T09:54:58.916Z,76.57
2018-02-20T09:57:27.240Z,93.60
2018-02-20T09:59:56.415Z,74.27
2018-02-20T10:02:24.706Z,76.23
2018-02-20T10:04:54.144Z,72.90
2018-02-20T10:07:23.207Z,70.77
2018-02-20T10:09:53.088Z,68.23
2018-02-20T10:12:22.069Z,67.47
2018-02-20T10:14:50.869Z,60.67
2018-02-20T10:17:19.228Z,64.23
2018-02-20T10:19:47.835Z,73.40
2018-02-20T10:22:16.110Z,78.77
2018-02-20T10:24:44.809Z,64.53
2018-02-20T10:27:13.580Z,71.43
2018-02-20T10:29:41.968Z,76.27
2018-02-20T10:32:10.251Z,66.10
2018-02-20T10:34:38.559Z,58.43
2018-02-20T10:37:07.697Z,60.60
2018-02-20T10:39:37.260Z,60.00
2018-02-20T10:42:06.342Z,53.80
2018-02-20T10:44:34.671Z,66.90
2018-02-20T10:47:02.941Z,52.53
2018-02-20T10:49:31.556Z,56.07
2018-02-20T10:51:59.832Z,59.37
2018-02-20T10:54:28.911Z,61.90
2018-02-20T10:56:57.355Z,50.53
2018-02-20T10:59:26.921Z,58.47
2018-02-20T11:01:55.223Z,61.17
2018-02-20T11:04:23.508Z,66.57
2018-02-20T11:06:51.780Z,65.77
2018-02-20T11:09:20.119Z,59.73
2018-02-20T11:11:48.393Z,51.50
2018-02-20T11:14:16.803Z,61.83
2018-02-20T11:16:45.088Z,65.87
2018-02-20T11:19:13.778Z,62.33
2018-02-20T11:21:42.725Z,66.60
2018-02-20T11:24:11.059Z,58.67
2018-02-20T11:26:39.342Z,62.87
2018-02-20T11:29:08.442Z,64.93
2018-02-20T11:31:37.477Z,73.63
2018-02-20T11:34:06.223Z,73.60
2018-02-20T11:36:35.065Z,69.83
2018-02-20T11:39:03.713Z,62.77
2018-02-20T11:41:34.288Z,70.07
2018-02-20T11:44:04.102Z,67.93
2018-02-20T11:46:32.478Z,79.60
2018-02-20T11:49:00.885Z,76.13
2018-02-20T11:51:29.169Z,78.43
2018-02-20T11:53:57.431Z,71.77
2018-02-20T11:56:25.747Z,82.73
2018-02-20T11:58:55.485Z,79.40
2018-02-20T12:01:23.763Z,80.03
2018-02-20T12:03:52.160Z,77.80
2018-02-20T12:06:20.535Z,79.17
2018-02-20T12:08:49.672Z,84.33
2018-02-20T12:11:18.684Z,78.67
2018-02-20T12:13:47.230Z,77.73
2018-02-20T12:16:15.556Z,90.73
2018-02-20T12:18:45.559Z,78.27
2018-02-20T12:21:14.498Z,70.33
2018-02-20T12:23:42.760Z,79.80
2018-02-20T12:26:11.059Z,81.87
2018-02-20T12:28:39.636Z,87.57
2018-02-20T12:31:08.032Z,88.73
2018-02-20T12:33:36.306Z,76.13
2018-02-20T12:36:04.589Z,82.23
2018-02-20T12:38:32.854Z,91.50
2018-02-20T12:41:01.344Z,83.83
2018-02-20T12:43:29.611Z,79.30
2018-02-20T12:45:58.660Z,68.20
2018-02-20T12:48:27.224Z,75.07
2018-02-20T12:50:55.952Z,74.33
2018-02-20T12:53:25.028Z,75.30
2018-02-20T12:55:54.071Z,71.33
2018-02-20T12:58:22.332Z,64.27
2018-02-20T13:00:50.648Z,66.17
2018-02-20T13:03:18.960Z,78.10
2018-02-20T13:05:47.341Z,68.93
2018-02-20T13:08:16.388Z,80.47
2018-02-20T13:10:45.925Z,67.03
2018-02-20T13:13:14.209Z,75.03
2018-02-20T13:15:42.940Z,73.80
2018-02-20T13:18:11.225Z,76.67
2018-02-20T13:20:40.981Z,74.10
2018-02-20T13:23:09.463Z,63.90
2018-02-20T13:25:38.153Z,70.00
2018-02-20T13:28:06.932Z,64.80
2018-02-20T13:30:35.290Z,67.47
2018-02-20T13:33:03.564Z,79.10
2018-02-20T13:35:31.837Z,68.43
2018-02-20T13:38:00.219Z,80.97
2018-02-20T13:40:28.535Z,78.87
2018-02-20T13:42:57.088Z,66.33
2018-02-20T13:45:25.368Z,77.37
2018-02-20T13:47:53.648Z,71.20
2018-02-20T13:50:21.928Z,74.10
2018-02-20T13:52:50.292Z,60.13
2018-02-20T13:55:18.773Z,73.00
2018-02-20T13:57:48.508Z,75.40
2018-02-20T14:00:16.988Z,70.50
2018-02-20T14:02:45.260Z,77.50
2018-02-20T14:05:13.543Z,68.07
2018-02-20T14:07:41.835Z,63.57
2018-02-20T14:10:10.103Z,65.87
2018-02-20T14:12:38.667Z,63.33
2018-02-20T14:15:06.932Z,67.27
2018-02-20T14:17:35.195Z,72.80
2018-02-20T14:20:03.632Z,71.57
2018-02-20T14:22:31.899Z,62.10
2018-02-20T14:25:00.188Z,67.57
2018-02-20T14:27:29.330Z,66.87
2018-02-20T14:29:57.635Z,67.67
2018-02-20T14:32:25.951Z,63.60
2018-02-20T14:34:54.280Z,65.50
2018-02-20T14:37:22.554Z,58.37
2018-02-20T14:39:51.695Z,63.60
2018-02-20T14:42:20.304Z,69.43
2018-02-20T14:44:49.367Z,62.03
2018-02-20T14:47:17.874Z,56.10
2018-02-20T14:49:48.476Z,64.10
2018-02-20T14:52:16.744Z,64.83
2018-02-20T14:54:45.053Z,60.43
2018-02-20T14:57:14.007Z,61.77
2018-02-20T14:59:42.286Z,69.90
2018-02-20T15:02:10.780Z,59.77
2018-02-20T15:04:39.058Z,64.43
2018-02-20T15:07:07.449Z,62.83
2018-02-20T15:09:35.747Z,65.67
2018-02-20T15:12:04.411Z,84.73
2018-02-20T15:14:33.231Z,67.87
2018-02-20T15:17:01.545Z,65.57
2018-02-20T15:19:30.660Z,71.83
2018-02-20T15:22:00.077Z,58.23
2018-02-20T15:24:29.184Z,63.80
2018-02-20T15:26:57.856Z,77.10
2018-02-20T15:29:26.124Z,62.17
2018-02-20T15:31:54.494Z,72.53
2018-02-20T15:34:23.500Z,62.70
2018-02-20T15:36:52.831Z,68.80
2018-02-20T15:39:21.133Z,59.07
2018-02-20T15:41:50.748Z,65.30
2018-02-20T15:44:19.788Z,62.47
2018-02-20T15:46:48.063Z,75.27
2018-02-20T15:49:16.340Z,66.73
2018-02-20T15:51:45.040Z,66.07
2018-02-20T15:54:13.500Z,61.67
2018-02-20T15:56:41.831Z,64.97
2018-02-20T15:59:12.850Z,67.37
2018-02-20T16:01:41.121Z,59.90
2018-02-20T16:04:10.117Z,67.40
2018-02-20T16:06:38.825Z,75.23
2018-02-20T16:09:07.321Z,58.23
2018-02-20T16:11:35.640Z,58.53
2018-02-20T16:14:10.050Z,56.00
2018-02-20T16:16:38.366Z,69.17
2018-02-20T16:19:07.809Z,65.83
2018-02-20T16:21:36.968Z,68.50
2018-02-20T16:24:05.363Z,64.13
2018-02-20T16:26:34.032Z,63.63
2018-02-20T16:29:02.311Z,58.10
2018-02-20T16:31:31.932Z,62.90
2018-02-20T16:34:00.218Z,56.13
2018-02-20T16:36:29.537Z,57.53
2018-02-20T16:38:57.821Z,59.73
2018-02-20T16:41:26.975Z,60.17
2018-02-20T16:43:55.339Z,64.77
2018-02-20T16:46:23.628Z,59.83
2018-02-20T16:48:52.024Z,56.80
2018-02-20T16:51:22.881Z,50.13
2018-02-20T16:53:51.941Z,64.03
2018-02-20T16:56:20.674Z,56.67
2018-02-20T16:58:49.005Z,64.90
2018-02-20T17:01:17.388Z,57.93
2018-02-20T17:03:46.176Z,62.30
2018-02-20T17:06:14.529Z,64.47
2018-02-20T17:08:42.815Z,58.03
2018-02-20T17:11:11.592Z,59.80
2018-02-20T17:13:39.889Z,62.10
2018-02-20T17:16:08.169Z,65.03
2018-02-20T17:18:36.559Z,60.63
2018-02-20T17:21:05.448Z,59.80
2018-02-20T17:23:33.720Z,61.40
2018-02-20T17:26:01.987Z,58.90
2018-02-20T17:28:30.397Z,54.23
2018-02-20T17:30:58.785Z,75.67
2018-02-20T17:33:27.239Z,59.50
2018-02-20T17:35:56.410Z,64.43
2018-02-20T17:38:25.963Z,64.07
2018-02-20T17:40:54.357Z,55.23
2018-02-20T17:43:23.499Z,57.97
2018-02-20T17:45:51.906Z,67.47
2018-02-20T17:48:20.185Z,68.20
2018-02-20T17:50:48.468Z,66.57
2018-02-20T17:53:16.799Z,68.20
2018-02-20T17:55:45.837Z,67.30
2018-02-20T17:58:14.120Z,66.03
2018-02-20T18:00:42.645Z,66.87
2018-02-20T18:03:11.350Z,53.90
2018-02-20T18:05:40.480Z,62.23
2018-02-20T18:08:09.000Z,58.53
2018-02-20T18:10:37.265Z,55.33
2018-02-20T18:13:06.473Z,71.17
2018-02-20T18:15:34.773Z,68.60
2018-02-20T18:18:03.839Z,55.10
2018-02-20T18:20:32.119Z,55.33
2018-02-20T18:23:01.116Z,63.17
2018-02-20T18:25:29.677Z,66.37
2018-02-20T18:27:57.981Z,58.83
2018-02-20T18:30:26.278Z,66.30
2018-02-20T18:32:55.068Z,60.57
2018-02-20T18:35:23.594Z,70.23
2018-02-20T18:37:51.897Z,61.43
2018-02-20T18:40:20.169Z,67.83
2018-02-20T18:42:48.496Z,71.73
2018-02-20T18:45:17.776Z,64.63
2018-02-20T18:47:46.067Z,65.53
2018-02-20T18:50:15.145Z,63.73
2018-02-20T18:52:43.495Z,63.07
2018-02-20T18:55:11.778Z,57.17
2018-02-20T18:57:40.102Z,66.20
2018-02-20T19:00:08.437Z,54.13
2018-02-20T19:02:37.276Z,68.73
2018-02-20T19:05:06.344Z,57.17
2018-02-20T19:07:34.624Z,55.20
2018-02-20T19:10:02.920Z,65.30
2018-02-20T19:12:31.230Z,60.60
2018-02-20T19:14:59.536Z,61.10
2018-02-20T19:17:27.964Z,85.87
2018-02-20T19:19:57.947Z,75.67
2018-02-20T19:22:26.853Z,73.00
2018-02-20T19:24:55.571Z,69.03
2018-02-20T19:27:24.604Z,64.60
2018-02-20T19:29:52.932Z,63.10
2018-02-20T19:32:21.592Z,61.40
2018-02-20T19:34:49.903Z,57.97
2018-02-20T19:37:19.013Z,54.77
2018-02-20T19:39:47.653Z,61.47
2018-02-20T19:42:15.949Z,66.43
2018-02-20T19:44:44.589Z,62.70
2018-02-20T19:47:13.106Z,56.97
2018-02-20T19:49:41.387Z,60.63
2018-02-20T19:52:10.075Z,70.43
2018-02-20T19:54:38.728Z,62.60
2018-02-20T19:57:08.601Z,59.27
2018-02-20T19:59:37.676Z,59.10
2018-02-20T20:02:05.972Z,56.33
2018-02-20T20:04:35.046Z,47.77
2018-02-20T20:07:03.368Z,60.23
2018-02-20T20:09:31.783Z,53.20
2018-02-20T20:12:00.185Z,61.03
2018-02-20T20:14:28.505Z,56.33
2018-02-20T20:16:56.782Z,53.47
2018-02-20T20:19:25.112Z,52.87
2018-02-20T20:21:53.681Z,56.53
2018-02-20T20:24:21.977Z,54.00
2018-02-20T20:26:50.262Z,56.43
2018-02-20T20:29:18.560Z,61.43
2018-02-20T20:31:47.629Z,61.47
2018-02-20T20:34:15.939Z,52.47
2018-02-20T20:36:45.900Z,53.70
2018-02-20T20:39:14.256Z,46.07
2018-02-20T20:41:43.280Z,54.73
2018-02-20T20:44:12.016Z,53.70
2018-02-20T20:46:42.455Z,51.33
2018-02-20T20:49:11.500Z,50.77
2018-02-20T20:51:40.377Z,50.27
2018-02-20T20:54:09.840Z,51.53
2018-02-20T20:56:38.901Z,42.10
2018-02-20T20:59:07.608Z,43.87
2018-02-20T21:01:36.621Z,51.27
2018-02-20T21:04:05.679Z,50.23
2018-02-20T21:06:34.057Z,52.63
2018-02-20T21:09:02.368Z,55.37
2018-02-20T21:11:31.837Z,44.30
2018-02-20T21:14:00.107Z,53.03
2018-02-20T21:16:28.489Z,55.70
2018-02-20T21:18:57.276Z,56.07
2018-02-20T21:21:25.600Z,57.13
2018-02-20T21:23:54.817Z,45.93
2018-02-20T21:26:24.652Z,54.07
2018-02-20T21:28:53.661Z,42.67
2018-02-20T21:31:21.941Z,57.87
2018-02-20T21:33:50.259Z,43.70
2018-02-20T21:36:18.566Z,58.17
2018-02-20T21:38:46.860Z,50.50
2018-02-20T21:41:15.563Z,49.93
2018-02-20T21:43:44.567Z,44.13
2018-02-20T21:46:13.493Z,59.93
2018-02-20T21:48:42.565Z,63.10
2018-02-20T21:51:11.251Z,53.07
2018-02-20T21:53:39.620Z,43.63
2018-02-20T21:56:08.090Z,56.07
2018-02-20T21:58:36.368Z,48.70
2018-02-20T22:01:04.680Z,47.30
2018-02-20T22:03:32.978Z,37.37
2018-02-20T22:06:02.141Z,45.20
2018-02-20T22:08:31.020Z,49.17
2018-02-20T22:10:59.336Z,60.27
2018-02-20T22:13:28.389Z,47.10
2018-02-20T22:15:56.772Z,50.20
2018-02-20T22:18:25.389Z,48.00
2018-02-20T22:20:53.712Z,58.33
2018-02-20T22:23:21.988Z,73.97
2018-02-20T22:25:50.280Z,68.00
2018-02-20T22:28:18.794Z,67.73
2018-02-20T22:30:47.124Z,65.40
2018-02-20T22:33:15.403Z,51.87
2018-02-20T22:35:43.696Z,58.03
2018-02-20T22:38:12.021Z,61.23
2018-02-20T22:40:40.291Z,64.67
2018-02-20T22:43:08.572Z,63.13
2018-02-20T22:45:37.739Z,67.13
2018-02-20T22:48:06.648Z,42.60
2018-02-20T22:50:35.409Z,60.77
2018-02-20T22:53:05.331Z,52.40
2018-02-20T22:55:33.704Z,51.00
2018-02-20T22:58:02.261Z,53.40
2018-02-20T23:00:30.608Z,54.77
2018-02-20T23:02:58.938Z,46.23
2018-02-20T23:05:27.222Z,58.17
2018-02-20T23:07:55.608Z,82.63
2018-02-20T23:10:23.908Z,57.20
2018-02-20T23:12:52.818Z,60.10
2018-02-20T23:15:21.105Z,64.17
2018-02-20T23:17:50.164Z,54.17
2018-02-20T23:20:18.728Z,55.23
2018-02-20T23:22:47.596Z,65.40
2018-02-20T23:25:17.268Z,56.97
2018-02-20T23:27:45.932Z,85.20
2018-02-20T23:30:14.250Z,51.70
2018-02-20T23:32:42.870Z,48.43
2018-02-20T23:35:11.177Z,59.20
2018-02-20T23:37:39.564Z,54.03
2018-02-20T23:40:08.460Z,52.87
2018-02-20T23:42:37.129Z,55.27
2018-02-20T23:45:06.176Z,61.77
2018-02-20T23:47:34.496Z,59.37
2018-02-20T23:50:03.423Z,76.10
2018-02-20T23:52:31.916Z,64.13
2018-02-20T23:55:00.228Z,55.60
2018-02-20T23:57:28.524Z,49.33
2018-02-20T23:59:57.882Z,52.10
